createdAt,value
2023-03-25T00:03:22.544Z,5.85
2023-03-25T00:08:25.487Z,5.13
2023-03-25T00:13:27.980Z,5.75
2023-03-25T00:18:34.841Z,7.40
2023-03-25T00:23:38.806Z,6.45
2023-03-25T00:28:40.890Z,4.78
2023-03-25T00:33:43.349Z,6.82
2023-03-25T00:38:49.009Z,4.65
2023-03-25T00:43:59.615Z,9.15
2023-03-25T00:49:01.783Z,9.27
2023-03-25T00:54:04.768Z,6.20
2023-03-25T00:59:06.886Z,12.60
2023-03-25T01:04:12.693Z,7.97
2023-03-25T01:09:17.211Z,6.22
2023-03-25T01:14:24.324Z,8.38
2023-03-25T01:19:26.905Z,5.45
2023-03-25T01:24:29.272Z,5.18
2023-03-25T01:29:32.166Z,8.60
2023-03-25T01:34:38.581Z,8.02
2023-03-25T01:39:40.872Z,5.28
2023-03-25T01:44:42.965Z,5.50
2023-03-25T01:49:46.842Z,5.68
2023-03-25T01:54:52.306Z,6.68
2023-03-25T01:59:55.478Z,7.13
2023-03-25T02:05:03.920Z,4.65
2023-03-25T02:10:10.336Z,8.63
2023-03-25T02:15:16.692Z,4.80
2023-03-25T02:20:31.055Z,6.43
2023-03-25T02:25:52.055Z,5.88
2023-03-25T02:31:09.879Z,6.57
2023-03-25T02:36:30.381Z,7.53
2023-03-25T02:41:57.480Z,7.07
2023-03-25T02:47:04.771Z,7.63
2023-03-25T02:52:38.111Z,7.80
2023-03-25T02:57:44.461Z,4.95
2023-03-25T03:03:02.392Z,6.35
2023-03-25T03:08:14.943Z,7.45
2023-03-25T03:13:35.735Z,5.97
2023-03-25T03:19:13.960Z,9.32
2023-03-25T03:24:24.578Z,7.70
2023-03-25T03:29:37.323Z,6.85
2023-03-25T03:34:46.536Z,8.65
2023-03-25T03:39:49.909Z,10.48
2023-03-25T03:44:57.279Z,10.27
2023-03-25T03:50:04.414Z,8.30
2023-03-25T03:55:29.393Z,8.07
2023-03-25T04:01:03.451Z,7.88
2023-03-25T04:06:22.209Z,9.40
2023-03-25T04:11:29.605Z,13.18
2023-03-25T04:16:35.924Z,9.18
2023-03-25T04:21:38.268Z,8.93
2023-03-25T04:26:40.314Z,9.82
2023-03-25T04:31:47.153Z,12.20
2023-03-25T04:36:52.342Z,8.57
2023-03-25T04:41:54.545Z,8.05
2023-03-25T04:46:56.646Z,8.13
2023-03-25T04:51:59.535Z,10.98
2023-03-25T04:57:01.688Z,9.13
2023-03-25T05:02:13.825Z,9.02
2023-03-25T05:07:16.862Z,9.48
2023-03-25T05:12:18.944Z,10.07
2023-03-25T05:17:21.004Z,11.15
2023-03-25T05:22:23.690Z,10.40
2023-03-25T05:27:25.931Z,11.05
2023-03-25T05:32:33.742Z,10.57
2023-03-25T05:37:35.911Z,8.65
2023-03-25T05:42:38.174Z,9.10
2023-03-25T05:47:40.406Z,10.60
2023-03-25T05:52:43.297Z,9.45
2023-03-25T05:57:45.413Z,7.70
2023-03-25T06:02:49.015Z,6.18
2023-03-25T06:07:51.764Z,7.18
2023-03-25T06:12:54.410Z,6.15
2023-03-25T06:17:57.479Z,6.68
2023-03-25T06:22:59.650Z,6.30
2023-03-25T06:33:07.167Z,8.13
2023-03-25T06:38:10.681Z,7.68
2023-03-25T06:43:29.703Z,7.55
2023-03-25T06:48:54.730Z,7.40
2023-03-25T06:58:58.780Z,11.45
2023-03-25T07:09:02.900Z,9.77
2023-03-25T07:14:04.980Z,11.68
2023-03-25T07:19:25.785Z,11.50
2023-03-25T07:25:04.940Z,11.48
2023-03-25T07:30:07.949Z,11.23
2023-03-25T07:35:10.000Z,10.57
2023-03-25T07:40:12.480Z,12.65
2023-03-25T07:45:14.799Z,10.90
2023-03-25T07:50:37.874Z,17.00
2023-03-25T07:55:40.029Z,15.05
2023-03-25T08:00:42.139Z,15.32
2023-03-25T08:05:48.506Z,12.45
2023-03-25T08:10:51.179Z,11.60
2023-03-25T08:16:12.203Z,14.15
2023-03-25T08:21:33.027Z,10.43
2023-03-25T08:27:13.925Z,12.48
2023-03-25T08:32:18.392Z,12.18
2023-03-25T08:37:21.700Z,13.70
2023-03-25T08:42:23.808Z,11.30
2023-03-25T08:52:28.076Z,13.55
2023-03-25T08:57:48.791Z,11.50
2023-03-25T09:02:51.669Z,12.20
2023-03-25T09:07:53.829Z,16.92
2023-03-25T09:12:56.076Z,12.43
2023-03-25T09:18:16.888Z,12.73
2023-03-25T09:23:19.009Z,14.40
2023-03-25T09:28:21.212Z,12.00
2023-03-25T09:33:23.316Z,14.05
2023-03-25T09:38:25.544Z,11.60
2023-03-25T09:44:01.506Z,12.10
2023-03-25T09:49:03.774Z,9.77
2023-03-25T09:54:32.690Z,11.70
2023-03-25T09:59:49.150Z,11.90
2023-03-25T10:05:22.315Z,12.82
2023-03-25T10:10:36.933Z,14.50
2023-03-25T10:16:11.014Z,16.00
2023-03-25T10:21:50.462Z,18.08
2023-03-25T10:32:40.453Z,12.63
2023-03-25T10:37:42.861Z,10.93
2023-03-25T10:42:59.508Z,10.52
2023-03-25T10:48:16.494Z,9.85
2023-03-25T10:53:25.522Z,11.98
2023-03-25T10:58:48.431Z,10.05
2023-03-25T11:04:13.366Z,10.05
2023-03-25T11:09:15.571Z,10.70
2023-03-25T11:14:23.452Z,10.77
2023-03-25T11:20:02.190Z,10.52
2023-03-25T11:31:21.050Z,9.55
2023-03-25T11:36:29.436Z,9.98
2023-03-25T11:41:34.119Z,10.60
2023-03-25T11:46:43.361Z,10.15
2023-03-25T11:51:46.097Z,8.57
2023-03-25T11:57:32.680Z,9.83
2023-03-25T12:02:40.612Z,10.02
2023-03-25T12:07:51.446Z,13.38
2023-03-25T12:13:17.135Z,11.35
2023-03-25T12:18:41.907Z,10.80
2023-03-25T12:24:14.928Z,10.55
2023-03-25T12:29:23.507Z,10.38
2023-03-25T12:34:49.590Z,10.18
2023-03-25T12:40:38.562Z,9.48
2023-03-25T12:51:42.561Z,10.00
2023-03-25T12:57:13.493Z,10.30
2023-03-25T13:02:18.750Z,9.82
2023-03-25T13:07:27.494Z,9.45
2023-03-25T13:12:38.830Z,9.85
2023-03-25T13:18:00.821Z,12.88
2023-03-25T13:23:24.347Z,9.80
2023-03-25T13:29:03.826Z,9.93
2023-03-25T13:34:11.823Z,8.18
2023-03-25T13:39:50.056Z,8.57
2023-03-25T13:44:54.234Z,8.45
2023-03-25T13:50:24.238Z,8.85
2023-03-25T13:55:35.267Z,8.35
2023-03-25T14:01:53.115Z,8.57
2023-03-25T14:07:16.425Z,9.65
2023-03-25T14:12:33.361Z,10.82
2023-03-25T14:17:36.826Z,12.20
2023-03-25T14:22:43.826Z,10.00
2023-03-25T14:27:50.957Z,11.63
2023-03-25T14:32:58.697Z,9.35
2023-03-25T14:38:09.740Z,14.02
2023-03-25T14:43:46.409Z,10.70
2023-03-25T14:54:56.640Z,10.13
2023-03-25T15:00:13.998Z,10.60
2023-03-25T15:05:24.812Z,11.57
2023-03-25T15:10:37.117Z,11.20
2023-03-25T15:15:45.394Z,10.63
2023-03-25T15:21:08.602Z,10.48
2023-03-25T15:26:21.865Z,8.48
2023-03-25T15:31:40.458Z,9.10
2023-03-25T15:36:54.424Z,9.65
2023-03-25T15:42:08.187Z,9.95
2023-03-25T15:47:37.477Z,10.13
2023-03-25T15:53:17.354Z,11.32
2023-03-25T15:58:55.478Z,12.23
2023-03-25T16:04:11.289Z,13.45
2023-03-25T16:09:28.538Z,17.98
2023-03-25T16:14:33.698Z,13.90
2023-03-25T16:19:40.091Z,11.57
2023-03-25T16:30:03.547Z,10.27
2023-03-25T16:35:08.161Z,9.88
2023-03-25T16:40:18.508Z,13.80
2023-03-25T16:45:21.152Z,9.43
2023-03-25T16:50:24.460Z,10.98
2023-03-25T16:55:31.709Z,8.27
2023-03-25T17:00:43.398Z,11.13
2023-03-25T17:05:57.103Z,9.65
2023-03-25T17:11:00.116Z,9.18
2023-03-25T17:16:02.261Z,7.90
2023-03-25T17:21:27.366Z,9.73
2023-03-25T17:27:19.870Z,9.50
2023-03-25T17:32:44.864Z,8.02
2023-03-25T17:37:48.812Z,8.30
2023-03-25T17:42:51.830Z,8.95
2023-03-25T17:48:12.829Z,10.02
2023-03-25T17:53:14.889Z,9.50
2023-03-25T18:03:37.418Z,10.02
2023-03-25T18:08:39.579Z,14.05
2023-03-25T18:13:47.792Z,9.45
2023-03-25T18:18:49.934Z,9.98
2023-03-25T18:24:11.079Z,8.45
2023-03-25T18:29:24.502Z,9.57
2023-03-25T18:34:27.779Z,9.30
2023-03-25T18:39:32.381Z,8.00
2023-03-25T18:44:34.447Z,7.88
2023-03-25T19:00:26.252Z,8.73
2023-03-25T19:10:32.125Z,8.02
2023-03-25T19:21:16.042Z,7.80
2023-03-25T19:26:18.281Z,8.55
2023-03-25T19:31:20.453Z,8.60
2023-03-25T19:36:23.250Z,7.03
2023-03-25T19:41:25.459Z,9.52
2023-03-25T19:46:29.343Z,7.78
2023-03-25T19:51:31.893Z,7.57
2023-03-25T19:56:52.743Z,8.18
2023-03-25T20:01:54.923Z,8.15
2023-03-25T20:06:57.076Z,9.65
2023-03-25T20:11:59.318Z,8.38
2023-03-25T20:17:01.386Z,8.70
2023-03-25T20:28:00.711Z,13.10
2023-03-25T20:33:03.301Z,9.93
2023-03-25T20:38:06.211Z,9.63
2023-03-25T20:43:08.439Z,9.07
2023-03-25T20:48:28.828Z,11.15
2023-03-25T20:53:50.436Z,8.75
2023-03-25T20:59:30.085Z,10.73
2023-03-25T21:04:33.055Z,12.57
2023-03-25T21:09:36.086Z,10.95
2023-03-25T21:14:38.472Z,8.70
2023-03-25T21:19:41.535Z,10.35
2023-03-25T21:24:43.885Z,10.85
2023-03-25T21:30:04.434Z,10.98
2023-03-25T21:35:08.036Z,13.63
2023-03-25T21:40:12.272Z,11.48
2023-03-25T21:45:17.075Z,9.25
2023-03-25T21:50:19.323Z,10.85
2023-03-25T22:01:01.392Z,10.38
2023-03-25T22:06:09.326Z,9.88
2023-03-25T22:11:17.433Z,9.65
2023-03-25T22:16:21.266Z,11.32
2023-03-25T22:21:42.308Z,12.05
2023-03-25T22:26:44.346Z,10.05
2023-03-25T22:31:46.440Z,11.80
2023-03-25T22:36:53.031Z,10.95
2023-03-25T22:41:56.580Z,10.98
2023-03-25T22:46:58.838Z,10.90
2023-03-25T22:57:20.779Z,11.77
2023-03-25T23:02:23.003Z,10.93
2023-03-25T23:07:25.131Z,9.52
2023-03-25T23:12:27.298Z,10.43
2023-03-25T23:17:29.430Z,13.13
2023-03-25T23:22:31.550Z,10.25
2023-03-25T23:27:52.172Z,10.20
2023-03-25T23:32:54.240Z,15.45
2023-03-25T23:37:56.878Z,10.18
2023-03-25T23:42:58.912Z,12.30
2023-03-25T23:53:39.620Z,11.80
2023-03-25T23:58:41.852Z,11.02
